^^
Datos históricos de la estación: Murcia-Puente Tocinos
Diario Informe para Agosto 21, 2019 Unidades:  Métrico    Inglés   Ambas
Diario Semanal Mensual Anual Configurable
  Máximo: Mínimo: Media:
Temperatura: 28.3 °C 21.9 °C 25.1 °C
Punto de rocio: 22.6 °C 13.3 °C 19.9 °C
Humedad: 96% 40% 75%
Velocidad viento: 20.9km/h 0.0km/h 10.3km/h
Racha viento: 38.6km/h - -
Viento- - East
Presión: 1017.9 hPa 1015.5 hPa -
Precipitación: 13.8 mm    
Historical Graphs
 
 
Tabla de datos para Agosto 21, 2019
Hora Temperatura Punto de rocio Presión Viento Velocidad viento Racha viento Humedad Intensidad lluvia(por hora) Nubes
00:00 25.9 °C 20.9 °C 1016.8 hPa NW 3.2 km/h 8.0 km/h 74% 0.0 mm CLR
00:05 25.9 °C 20.7 °C 1016.8 hPa NW 3.2 km/h 8.0 km/h 73% 0.0 mm CLR
00:10 26.0 °C 20.8 °C 1016.8 hPa NW 3.2 km/h 8.0 km/h 73% 0.0 mm CLR
00:15 26.0 °C 20.8 °C 1016.8 hPa NW 3.2 km/h 9.7 km/h 73% 0.0 mm CLR
00:20 26.1 °C 20.9 °C 1016.8 hPa NW 3.2 km/h 8.0 km/h 73% 0.0 mm CLR
00:25 26.0 °C 20.8 °C 1016.8 hPa NW 3.2 km/h 9.7 km/h 73% 0.0 mm CLR
00:30 25.9 °C 20.7 °C 1016.8 hPa NW 3.2 km/h 9.7 km/h 73% 0.0 mm CLR
00:35 25.9 °C 20.7 °C 1016.9 hPa WNW 3.2 km/h 8.0 km/h 73% 0.0 mm CLR
00:40 25.9 °C 20.7 °C 1016.9 hPa NW 3.2 km/h 9.7 km/h 73% 0.0 mm CLR
00:45 25.9 °C 20.4 °C 1016.9 hPa NW 3.2 km/h 11.3 km/h 72% 0.0 mm CLR
00:50 25.8 °C 20.4 °C 1017.0 hPa NW 4.8 km/h 8.0 km/h 72% 0.0 mm CLR
00:55 25.8 °C 20.4 °C 1017.0 hPa WNW 4.8 km/h 8.0 km/h 72% 0.0 mm CLR
01:00 25.8 °C 20.4 °C 1017.0 hPa WNW 3.2 km/h 11.3 km/h 72% 0.0 mm CLR
01:05 25.8 °C 20.4 °C 1017.0 hPa WNW 3.2 km/h 12.9 km/h 72% 0.0 mm CLR
01:10 25.8 °C 20.4 °C 1017.0 hPa NW 8.0 km/h 11.3 km/h 72% 0.0 mm CLR
01:15 25.8 °C 20.4 °C 1017.0 hPa NW 8.0 km/h 14.5 km/h 72% 0.0 mm CLR
01:20 25.8 °C 20.4 °C 1017.0 hPa NW 8.0 km/h 12.9 km/h 72% 0.0 mm CLR
01:25 25.8 °C 20.4 °C 1017.0 hPa NW 8.0 km/h 12.9 km/h 72% 0.0 mm CLR
01:30 25.8 °C 20.4 °C 1017.0 hPa NW 8.0 km/h 14.5 km/h 72% 0.0 mm CLR
01:35 25.8 °C 20.4 °C 1017.0 hPa WNW 6.9 km/h 13.0 km/h 72% 0.0 mm CLR
01:40 25.7 °C 20.3 °C 1017.0 hPa NW 8.0 km/h 14.5 km/h 72% 0.0 mm CLR
01:45 25.7 °C 20.3 °C 1017.0 hPa NW 8.0 km/h 12.9 km/h 72% 0.0 mm CLR
01:50 25.7 °C 20.3 °C 1017.0 hPa NW 8.0 km/h 11.3 km/h 72% 0.0 mm CLR
01:55 25.7 °C 20.3 °C 1017.0 hPa NNW 8.0 km/h 11.3 km/h 72% 0.0 mm CLR
02:00 25.7 °C 20.3 °C 1017.0 hPa NNW 4.8 km/h 9.7 km/h 72% 0.0 mm CLR
02:05 25.8 °C 20.3 °C 1017.0 hPa North 4.8 km/h 11.3 km/h 72% 0.0 mm CLR
02:10 25.7 °C 20.7 °C 1017.0 hPa NE 8.0 km/h 9.7 km/h 74% 0.0 mm RA
02:15 25.4 °C 21.1 °C 1017.0 hPa NE 8.0 km/h 14.5 km/h 77% 0.8 mm RA
02:20 25.0 °C 21.5 °C 1017.0 hPa NE 8.0 km/h 16.1 km/h 81% 0.2 mm RA
02:25 24.7 °C 21.6 °C 1017.0 hPa NE 8.0 km/h 14.5 km/h 83% 0.0 mm RA
02:30 24.5 °C 21.8 °C 1017.0 hPa NE 9.7 km/h 17.7 km/h 85% 0.0 mm
02:35 24.3 °C 22.1 °C 1017.0 hPa NNE 9.7 km/h 12.9 km/h 87% 0.0 mm
02:40 24.2 °C 21.9 °C 1017.0 hPa NNE 8.0 km/h 9.7 km/h 87% 0.0 mm
02:45 24.2 °C 22.1 °C 1017.0 hPa NE 8.0 km/h 8.0 km/h 88% 0.0 mm
02:50 24.1 °C 22.0 °C 1017.1 hPa NE 4.8 km/h 9.7 km/h 88% 0.0 mm
02:55 24.1 °C 22.0 °C 1017.1 hPa NE 4.8 km/h 9.7 km/h 88% 0.0 mm
03:00 24.1 °C 22.2 °C 1017.1 hPa NE 3.2 km/h 8.0 km/h 89% 0.0 mm
03:05 24.1 °C 22.2 °C 1016.9 hPa ENE 3.2 km/h 8.0 km/h 89% 0.5 mm RA
03:10 24.0 °C 22.1 °C 1016.9 hPa East 3.2 km/h 6.4 km/h 89% 0.5 mm RA
03:15 24.0 °C 22.1 °C 1016.9 hPa East 3.2 km/h 4.8 km/h 89% 0.0 mm
03:20 23.9 °C 22.0 °C 1016.8 hPa Calm   4.8 km/h 89% 0.0 mm
03:25 24.0 °C 22.3 °C 1016.8 hPa Calm   4.8 km/h 90% 0.0 mm
03:30 24.1 °C 22.3 °C 1016.8 hPa NNW 3.2 km/h 8.0 km/h 90% 0.0 mm
03:35 24.1 °C 22.3 °C 1016.9 hPa NNW 3.2 km/h 6.4 km/h 90% 0.0 mm
03:40 24.1 °C 22.3 °C 1016.9 hPa NNW 3.2 km/h 6.4 km/h 90% 0.0 mm
03:45 24.0 °C 22.3 °C 1016.9 hPa NW 3.2 km/h 4.8 km/h 90% 0.0 mm
03:50 23.9 °C 22.2 °C 1016.7 hPa NW 1.6 km/h 6.4 km/h 90% 0.0 mm
03:55 23.9 °C 22.2 °C 1016.7 hPa NW 1.6 km/h 4.8 km/h 90% 0.0 mm
04:00 23.8 °C 22.1 °C 1016.7 hPa NNW 3.2 km/h 6.4 km/h 90% 0.0 mm
04:05 23.8 °C 22.1 °C 1016.8 hPa NNW 3.2 km/h 3.2 km/h 90% 0.0 mm
04:10 23.9 °C 22.2 °C 1016.8 hPa Calm   1.6 km/h 90% 0.0 mm
04:15 23.9 °C 22.2 °C 1016.8 hPa Calm   8.0 km/h 90% 0.0 mm
04:20 23.9 °C 22.2 °C 1016.9 hPa Calm   3.2 km/h 90% 0.0 mm
04:25 23.9 °C 22.2 °C 1016.9 hPa Calm   8.0 km/h 90% 0.3 mm RA
04:30 23.9 °C 22.2 °C 1016.9 hPa NE 3.2 km/h 8.0 km/h 90% 0.0 mm RA
04:35 23.9 °C 22.2 °C 1016.8 hPa NE 3.2 km/h 8.0 km/h 90% 0.2 mm RA
04:40 23.8 °C 22.2 °C 1016.8 hPa NE 3.2 km/h 8.0 km/h 91% 0.3 mm RA
04:45 23.8 °C 22.2 °C 1016.8 hPa NE 3.2 km/h   91% 0.0 mm RA
04:50 23.8 °C 22.2 °C 1016.8 hPa Calm   3.2 km/h 91% 0.0 mm
04:55 23.8 °C 22.2 °C 1016.8 hPa Calm   4.8 km/h 91% 0.0 mm
05:00 23.8 °C 22.4 °C 1016.8 hPa North 1.6 km/h 6.4 km/h 92% 0.0 mm
05:05 23.8 °C 22.4 °C 1016.8 hPa NNE 1.6 km/h 12.9 km/h 92% 0.0 mm
05:10 23.6 °C 22.3 °C 1016.8 hPa NNE 8.0 km/h 19.3 km/h 92% 0.0 mm
05:15 23.3 °C 21.7 °C 1016.8 hPa NE 7.6 km/h 24.1 km/h 91% 0.8 mm CLR
05:20 23.2 °C 21.8 °C 1017.0 hPa NNE 11.3 km/h 24.1 km/h 92% 0.0 mm RA
05:25 23.1 °C 21.9 °C 1017.0 hPa NNE 11.3 km/h 16.1 km/h 93% 0.0 mm RA
05:30 23.1 °C 21.9 °C 1017.0 hPa NNE 9.7 km/h 17.7 km/h 93% 0.0 mm RA
05:35 22.9 °C 21.9 °C 1016.9 hPa NNE 9.7 km/h 19.3 km/h 94% 0.5 mm RA
05:40 22.8 °C 21.8 °C 1016.9 hPa NNE 11.3 km/h 20.9 km/h 94% 0.0 mm RA
05:45 22.7 °C 21.7 °C 1016.9 hPa NNE 11.3 km/h 17.7 km/h 94% 0.5 mm RA
05:50 22.7 °C 21.7 °C 1016.9 hPa NNE 9.7 km/h 16.1 km/h 94% 0.0 mm RA
05:55 22.7 °C 21.7 °C 1016.9 hPa NNE 9.7 km/h 11.3 km/h 94% 0.0 mm RA
06:00 22.7 °C 21.7 °C 1016.9 hPa NNE 8.0 km/h 11.3 km/h 94% 0.0 mm RA
06:05 22.7 °C 21.8 °C 1016.9 hPa NNE 8.0 km/h 9.7 km/h 95% 0.3 mm RA
06:10 22.7 °C 21.8 °C 1016.9 hPa NNE 8.0 km/h 11.3 km/h 95% 0.2 mm RA
06:15 22.7 °C 21.8 °C 1016.9 hPa NNE 8.0 km/h 14.5 km/h 95% 0.3 mm RA
06:20 22.7 °C 21.8 °C 1016.8 hPa NNE 8.0 km/h 12.9 km/h 95% 0.0 mm RA
06:25 22.7 °C 21.8 °C 1016.8 hPa NNE 8.0 km/h 11.3 km/h 95% 0.2 mm RA
06:30 22.7 °C 21.8 °C 1016.8 hPa NNE 8.0 km/h 11.3 km/h 95% 0.3 mm RA
06:35 22.8 °C 21.9 °C 1016.8 hPa NNE 8.0 km/h 11.3 km/h 95% 0.0 mm RA
06:40 22.7 °C 21.9 °C 1016.8 hPa NNE 8.0 km/h 12.9 km/h 95% 0.0 mm RA
06:45 22.7 °C 21.8 °C 1016.8 hPa North 6.9 km/h 13.0 km/h 95% 3.4 mm RA
06:50 22.7 °C 21.8 °C 1016.9 hPa NNE 8.0 km/h 12.9 km/h 95% 0.0 mm RA
06:55 22.6 °C 21.8 °C 1016.9 hPa NNE 8.0 km/h 33.8 km/h 95% 0.0 mm RA
07:00 22.6 °C 21.8 °C 1016.9 hPa NE 14.5 km/h 22.5 km/h 95% 0.0 mm
07:05 22.4 °C 21.6 °C 1017.0 hPa NNE 14.8 km/h 27.8 km/h 95% 3.0 mm CLR
07:10 22.3 °C 21.4 °C 1017.0 hPa NE 16.1 km/h 32.2 km/h 95% 0.0 mm
07:15 22.2 °C 21.3 °C 1017.0 hPa NE 16.1 km/h 24.1 km/h 95% 0.0 mm
07:20 22.2 °C 21.3 °C 1017.1 hPa NE 14.5 km/h 24.1 km/h 95% 0.0 mm
07:25 22.1 °C 21.3 °C 1017.1 hPa NE 14.5 km/h 25.7 km/h 95% 0.0 mm RA
07:30 22.1 °C 21.3 °C 1017.1 hPa NE 14.8 km/h 18.5 km/h 95% 1.8 mm RA
07:35 22.1 °C 21.3 °C 1017.3 hPa NE 14.5 km/h 17.7 km/h 95% 0.5 mm RA
07:40 22.1 °C 21.3 °C 1017.3 hPa NE 9.7 km/h 16.1 km/h 95% 1.0 mm RA
07:45 21.9 °C 21.1 °C 1017.3 hPa NE 9.7 km/h 14.5 km/h 95% 0.8 mm RA
07:50 21.9 °C 21.1 °C 1017.2 hPa NE 9.7 km/h 16.1 km/h 95% 0.2 mm RA
07:55 21.9 °C 21.1 °C 1017.2 hPa NE 9.7 km/h 14.5 km/h 95% 0.0 mm RA
08:00 21.9 °C 21.1 °C 1017.2 hPa NE 8.0 km/h 11.3 km/h 95% 0.0 mm RA
08:05 22.1 °C 21.3 °C 1017.3 hPa NE 8.0 km/h 11.3 km/h 95% 0.5 mm RA
08:10 22.2 °C 21.3 °C 1017.3 hPa NE 6.4 km/h 11.1 km/h 95% 2.3 mm RA
08:15 22.2 °C 21.6 °C 1017.3 hPa NNE 8.0 km/h 11.3 km/h 96% 0.0 mm
08:20 22.3 °C 21.6 °C 1017.3 hPa NNE 4.8 km/h 11.3 km/h 96% 0.3 mm RA
08:25 22.3 °C 21.7 °C 1017.3 hPa NNE 4.8 km/h 12.9 km/h 96% 0.0 mm RA
08:30 22.4 °C 21.7 °C 1017.3 hPa NE 8.0 km/h 11.3 km/h 96% 0.0 mm
08:35 22.6 °C 21.9 °C 1017.5 hPa NE 8.0 km/h 9.7 km/h 96% 0.0 mm
08:40 22.6 °C 21.9 °C 1017.5 hPa NE 8.0 km/h 16.1 km/h 96% 0.0 mm RA
08:45 22.7 °C 22.1 °C 1017.5 hPa NE 8.0 km/h 14.5 km/h 96% 0.5 mm RA
08:50 22.7 °C 22.0 °C 1017.4 hPa NE 9.7 km/h 19.3 km/h 96% 0.0 mm RA
08:55 22.6 °C 21.9 °C 1017.4 hPa NE 9.7 km/h 20.9 km/h 96% 0.0 mm RA
09:00 22.7 °C 22.0 °C 1017.4 hPa NE 12.9 km/h 22.5 km/h 96% 0.0 mm
09:05 22.6 °C 21.8 °C 1017.2 hPa NE 12.9 km/h 30.6 km/h 95% 0.2 mm RA
09:10 22.4 °C 21.6 °C 1017.2 hPa NE 16.1 km/h 33.8 km/h 95% 0.7 mm RA
09:15 22.4 °C 21.6 °C 1017.2 hPa NE 16.1 km/h 24.1 km/h 95% 0.5 mm RA
09:20 22.4 °C 21.6 °C 1017.3 hPa NE 14.5 km/h 24.1 km/h 95% 0.0 mm
09:25 22.4 °C 21.6 °C 1017.3 hPa NE 14.5 km/h 20.9 km/h 95% 0.3 mm RA
09:30 22.5 °C 21.7 °C 1017.3 hPa NE 11.3 km/h 19.3 km/h 95% 0.0 mm RA
09:35 22.5 °C 21.7 °C 1017.4 hPa NE 11.3 km/h 16.1 km/h 95% 0.0 mm RA
09:40 22.5 °C 21.7 °C 1017.4 hPa NE 9.7 km/h 16.1 km/h 95% 0.6 mm RA
09:45 22.6 °C 21.8 °C 1017.4 hPa NE 9.7 km/h 11.3 km/h 95% 0.3 mm RA
09:50 22.6 °C 21.8 °C 1017.5 hPa ENE 8.0 km/h 14.5 km/h 95% 0.2 mm RA
09:55 22.6 °C 21.8 °C 1017.5 hPa ENE 8.0 km/h 11.3 km/h 95% 0.0 mm RA
10:00 22.7 °C 21.8 °C 1017.5 hPa East 8.0 km/h 11.3 km/h 95% 0.0 mm RA
10:05 22.7 °C 22.1 °C 1017.4 hPa East 8.0 km/h 9.7 km/h 96% 0.2 mm RA
10:10 22.8 °C 21.9 °C 1017.4 hPa ENE 3.2 km/h 8.0 km/h 95% 0.0 mm
10:15 22.9 °C 22.2 °C 1017.4 hPa ENE 3.2 km/h 8.0 km/h 96% 0.0 mm
10:20 22.9 °C 22.1 °C 1017.4 hPa NE 3.2 km/h 9.7 km/h 95% 0.0 mm
10:25 22.9 °C 22.2 °C 1017.4 hPa NNE 3.2 km/h 8.0 km/h 96% 0.0 mm
10:30 23.0 °C 22.2 °C 1017.4 hPa NE 3.2 km/h 9.7 km/h 95% 0.0 mm
10:35 23.2 °C 22.3 °C 1017.3 hPa NE 3.2 km/h 9.7 km/h 95% 0.0 mm
10:40 23.3 °C 22.4 °C 1017.3 hPa NNE 4.8 km/h 11.3 km/h 95% 0.0 mm
10:45 23.4 °C 22.6 °C 1017.3 hPa NE 4.8 km/h 19.3 km/h 95% 0.0 mm
10:50 23.6 °C 22.6 °C 1017.4 hPa NE 11.3 km/h 22.5 km/h 94% 0.0 mm
10:55 23.8 °C 22.4 °C 1017.4 hPa NE 11.3 km/h 20.9 km/h 92% 0.0 mm
11:00 24.0 °C 22.1 °C 1017.4 hPa NE 12.9 km/h 27.4 km/h 89% 0.0 mm
11:05 24.2 °C 22.1 °C 1017.5 hPa NE 12.9 km/h 20.9 km/h 88% 0.0 mm
11:10 24.2 °C 21.7 °C 1017.5 hPa NE 12.9 km/h 25.7 km/h 86% 0.0 mm
11:15 24.3 °C 21.6 °C 1017.5 hPa NNE 12.9 km/h 25.7 km/h 85% 0.0 mm
11:20 24.6 °C 21.4 °C 1017.6 hPa NE 16.1 km/h 32.2 km/h 83% 0.0 mm CLR
11:25 24.6 °C 21.3 °C 1017.6 hPa NE 16.1 km/h 29.0 km/h 82% 0.0 mm CLR
11:30 24.7 °C 21.4 °C 1017.6 hPa NE 19.3 km/h 30.6 km/h 82% 0.0 mm CLR
11:35 24.6 °C 21.4 °C 1017.8 hPa NNE 19.3 km/h 32.2 km/h 83% 0.0 mm CLR
11:40 24.4 °C 21.3 °C 1017.8 hPa NE 20.9 km/h 32.2 km/h 83% 0.0 mm CLR
11:45 24.3 °C 21.6 °C 1017.8 hPa NE 20.9 km/h 27.4 km/h 85% 0.0 mm
11:50 24.4 °C 21.8 °C 1017.8 hPa NE 16.1 km/h 24.1 km/h 85% 0.0 mm
11:55 24.7 °C 21.8 °C 1017.8 hPa NE 16.1 km/h 27.4 km/h 84% 0.0 mm CLR
12:00 24.9 °C 21.7 °C 1017.8 hPa NE 16.1 km/h 25.7 km/h 82% 0.0 mm CLR
12:05 25.2 °C 21.9 °C 1017.7 hPa NE 16.1 km/h 27.4 km/h 82% 0.0 mm CLR
12:10 25.4 °C 21.7 °C 1017.7 hPa NE 16.1 km/h 33.8 km/h 80% 0.0 mm CLR
12:15 25.6 °C 21.5 °C 1017.7 hPa NE 16.1 km/h 25.7 km/h 78% 0.0 mm CLR
12:20 25.9 °C 21.1 °C 1017.6 hPa NE 19.3 km/h 35.4 km/h 75% 0.0 mm CLR
12:25 25.9 °C 20.9 °C 1017.6 hPa NE 19.3 km/h 32.2 km/h 74% 0.0 mm CLR
12:30 25.9 °C 20.9 °C 1017.6 hPa NE 20.9 km/h 30.6 km/h 74% 0.0 mm CLR
12:35 26.1 °C 20.9 °C 1017.4 hPa NE 20.9 km/h 30.6 km/h 73% 0.0 mm CLR
12:40 26.3 °C 20.8 °C 1017.4 hPa NE 20.9 km/h 29.0 km/h 72% 0.0 mm CLR
12:45 26.3 °C 20.6 °C 1017.4 hPa NE 20.9 km/h 32.2 km/h 71% 0.0 mm CLR
12:50 26.4 °C 20.7 °C 1017.4 hPa NE 16.1 km/h 27.4 km/h 71% 0.0 mm CLR
12:55 26.4 °C 20.3 °C 1017.4 hPa NE 16.1 km/h 30.6 km/h 69% 0.0 mm CLR
13:00 26.6 °C 20.7 °C 1017.4 hPa NE 16.1 km/h 29.0 km/h 70% 0.0 mm CLR
13:05 26.8 °C 20.2 °C 1017.3 hPa NE 16.1 km/h 29.0 km/h 67% 0.0 mm CLR
13:10 26.9 °C 20.3 °C 1017.3 hPa NE 16.1 km/h 29.0 km/h 67% 0.0 mm CLR
13:15 26.9 °C 20.1 °C 1017.3 hPa NE 16.1 km/h 32.2 km/h 66% 0.0 mm CLR
13:20 26.8 °C 19.9 °C 1017.3 hPa NE 20.9 km/h 35.4 km/h 66% 0.0 mm CLR
13:25 26.8 °C 19.9 °C 1017.3 hPa NE 20.9 km/h 33.8 km/h 66% 0.0 mm CLR
13:30 26.9 °C 19.7 °C 1017.3 hPa NE 20.9 km/h 33.8 km/h 65% 0.0 mm CLR
13:35 26.7 °C 19.6 °C 1017.2 hPa NE 20.9 km/h 29.0 km/h 65% 0.0 mm CLR
13:40 26.7 °C 19.6 °C 1017.2 hPa NE 19.3 km/h 27.4 km/h 65% 0.0 mm CLR
13:45 26.7 °C 19.6 °C 1017.2 hPa NE 19.3 km/h 33.8 km/h 65% 0.0 mm CLR
13:50 26.6 °C 19.7 °C 1017.1 hPa NE 20.9 km/h 27.4 km/h 66% 0.0 mm CLR
13:55 26.6 °C 19.5 °C 1017.1 hPa NE 20.9 km/h 35.4 km/h 65% 0.0 mm CLR
14:00 26.6 °C 19.5 °C 1017.1 hPa NE 19.3 km/h 35.4 km/h 65% 0.0 mm CLR
14:05 26.7 °C 19.8 °C 1017.0 hPa NE 19.3 km/h 20.9 km/h 66% 0.0 mm CLR
14:10 26.7 °C 19.5 °C 1017.0 hPa NE 12.9 km/h 27.4 km/h 65% 0.0 mm CLR
14:15 26.6 °C 19.2 °C 1017.0 hPa NE 12.9 km/h 27.4 km/h 64% 0.0 mm CLR
14:20 26.7 °C 19.1 °C 1017.0 hPa NE 16.1 km/h 30.6 km/h 63% 0.0 mm CLR
14:25 26.7 °C 18.8 °C 1017.0 hPa NE 16.1 km/h 27.4 km/h 62% 0.0 mm CLR
14:30 26.8 °C 19.2 °C 1017.0 hPa NE 19.3 km/h 32.2 km/h 63% 0.0 mm CLR
14:35 27.0 °C 19.3 °C 1017.1 hPa NE 19.3 km/h 29.0 km/h 63% 0.0 mm CLR
14:40 26.8 °C 19.4 °C 1017.1 hPa NE 16.1 km/h 29.0 km/h 64% 0.0 mm CLR
14:45 26.8 °C 19.2 °C 1017.1 hPa NE 16.1 km/h 30.6 km/h 63% 0.0 mm CLR
14:50 26.8 °C 18.9 °C 1017.0 hPa NE 14.5 km/h 25.7 km/h 62% 0.0 mm CLR
14:55 27.0 °C 19.3 °C 1017.0 hPa NE 14.5 km/h 24.1 km/h 63% 0.0 mm CLR
15:00 27.2 °C 19.5 °C 1017.0 hPa NE 11.3 km/h 24.1 km/h 63% 0.0 mm CLR
15:05 27.2 °C 19.0 °C 1016.9 hPa NE 11.3 km/h 25.7 km/h 61% 0.0 mm CLR
15:10 27.1 °C 18.7 °C 1016.9 hPa NE 14.5 km/h 25.7 km/h 60% 0.0 mm CLR
15:15 27.1 °C 17.8 °C 1016.9 hPa NE 14.5 km/h 25.7 km/h 57% 0.0 mm CLR
15:20 27.2 °C 18.2 °C 1016.7 hPa NE 16.1 km/h 32.2 km/h 58% 0.0 mm CLR
15:25 27.3 °C 18.1 °C 1016.7 hPa NE 16.1 km/h 33.8 km/h 57% 0.0 mm CLR
15:30 27.4 °C 18.1 °C 1016.7 hPa NE 19.3 km/h 30.6 km/h 57% 0.0 mm CLR
15:35 27.5 °C 18.5 °C 1016.4 hPa NE 19.3 km/h 33.8 km/h 58% 0.0 mm CLR
15:40 27.6 °C 18.1 °C 1016.4 hPa NE 19.3 km/h 33.8 km/h 56% 0.0 mm CLR
15:45 27.7 °C 18.1 °C 1016.4 hPa NE 19.3 km/h 32.2 km/h 56% 0.0 mm CLR
15:50 27.7 °C 18.4 °C 1016.2 hPa NE 16.1 km/h 32.2 km/h 57% 0.0 mm CLR
15:55 27.7 °C 18.4 °C 1016.2 hPa NE 16.1 km/h 33.8 km/h 57% 0.0 mm CLR
16:00 27.6 °C 18.1 °C 1016.2 hPa NE 20.9 km/h 35.4 km/h 56% 0.0 mm CLR
16:05 27.8 °C 18.5 °C 1016.0 hPa NE 20.9 km/h 25.7 km/h 57% 0.0 mm CLR
16:10 27.8 °C 18.5 °C 1016.0 hPa NE 16.1 km/h 33.8 km/h 57% 0.0 mm CLR
16:15 27.8 °C 18.5 °C 1016.0 hPa NE 16.1 km/h 33.8 km/h 57% 0.0 mm CLR
16:20 27.7 °C 18.7 °C 1015.9 hPa NE 16.1 km/h 29.0 km/h 58% 0.0 mm CLR
16:25 27.8 °C 17.9 °C 1015.9 hPa NE 16.1 km/h 29.0 km/h 55% 0.0 mm CLR
16:30 27.9 °C 17.1 °C 1015.9 hPa NE 16.1 km/h 38.6 km/h 52% 0.0 mm CLR
16:35 27.9 °C 16.8 °C 1015.8 hPa NE 16.1 km/h 30.6 km/h 51% 0.0 mm CLR
16:40 28.1 °C 17.6 °C 1015.8 hPa NE 16.1 km/h 30.6 km/h 53% 0.0 mm CLR
16:45 27.9 °C 17.7 °C 1015.8 hPa ENE 16.1 km/h 30.6 km/h 54% 0.0 mm CLR
16:50 28.0 °C 17.8 °C 1015.8 hPa ENE 14.5 km/h 25.7 km/h 54% 0.0 mm CLR
16:55 27.8 °C 17.1 °C 1015.8 hPa ENE 14.5 km/h 33.8 km/h 52% 0.0 mm CLR
17:00 27.9 °C 17.1 °C 1015.8 hPa ENE 16.1 km/h 37.0 km/h 52% 0.0 mm CLR
17:05 27.8 °C 15.1 °C 1015.7 hPa ENE 16.1 km/h 37.0 km/h 46% 0.0 mm CLR
17:10 27.9 °C 15.2 °C 1015.7 hPa ENE 19.3 km/h 25.7 km/h 46% 0.0 mm CLR
17:15 28.1 °C 13.6 °C 1015.7 hPa ENE 19.3 km/h 33.8 km/h 41% 0.0 mm CLR
17:20 28.2 °C 13.3 °C 1015.6 hPa ENE 14.5 km/h 24.1 km/h 40% 0.0 mm CLR
17:25 28.3 °C 13.8 °C 1015.6 hPa NE 14.5 km/h 29.0 km/h 41% 0.0 mm CLR
17:30 28.2 °C 14.4 °C 1015.6 hPa NE 14.5 km/h 24.1 km/h 43% 0.0 mm CLR
17:35 28.1 °C 14.7 °C 1015.8 hPa ENE 14.5 km/h 29.0 km/h 44% 0.0 mm CLR
17:40 28.1 °C 14.3 °C 1015.8 hPa ENE 14.5 km/h 27.4 km/h 43% 0.0 mm CLR
17:45 27.9 °C 14.9 °C 1015.8 hPa NE 14.5 km/h 27.4 km/h 45% 0.0 mm CLR
17:50 28.1 °C 14.7 °C 1015.8 hPa NE 19.3 km/h 30.6 km/h 44% 0.0 mm CLR
17:55 27.9 °C 15.2 °C 1015.8 hPa ENE 19.3 km/h 30.6 km/h 46% 0.0 mm CLR
18:00 27.9 °C 15.6 °C 1015.8 hPa ENE 16.1 km/h 29.0 km/h 47% 0.0 mm CLR
18:05 27.8 °C 15.1 °C 1015.8 hPa NE 16.1 km/h 30.6 km/h 46% 0.0 mm CLR
18:10 27.8 °C 15.4 °C 1015.8 hPa NE 14.5 km/h 27.4 km/h 47% 0.0 mm CLR
18:15 27.7 °C 15.7 °C 1015.8 hPa NE 14.5 km/h 27.4 km/h 48% 0.0 mm CLR
18:20 27.7 °C 15.7 °C 1015.6 hPa NE 14.5 km/h 25.7 km/h 48% 0.0 mm CLR
18:25 27.4 °C 15.8 °C 1015.6 hPa NE 14.5 km/h 29.0 km/h 49% 0.0 mm CLR
18:30 27.4 °C 15.7 °C 1015.6 hPa ENE 16.1 km/h 29.0 km/h 49% 0.0 mm CLR
18:35 27.3 °C 16.0 °C 1015.6 hPa NE 16.1 km/h 25.7 km/h 50% 0.0 mm CLR
18:40 27.3 °C 16.0 °C 1015.6 hPa NE 16.1 km/h 25.7 km/h 50% 0.0 mm CLR
18:45 27.4 °C 16.7 °C 1015.6 hPa NE 16.1 km/h 24.1 km/h 52% 0.0 mm CLR
18:50 27.3 °C 15.9 °C 1015.5 hPa NE 16.1 km/h 33.8 km/h 50% 0.0 mm CLR
18:55 27.2 °C 16.2 °C 1015.5 hPa NE 16.1 km/h 27.4 km/h 51% 0.0 mm CLR
19:00 27.2 °C 16.5 °C 1015.5 hPa ENE 14.5 km/h 30.6 km/h 52% 0.0 mm CLR
19:05 27.1 °C 17.0 °C 1015.5 hPa ENE 14.5 km/h 29.0 km/h 54% 0.0 mm CLR
19:10 27.1 °C 17.5 °C 1015.5 hPa ENE 14.5 km/h 25.7 km/h 56% 0.0 mm CLR
19:15 26.8 °C 17.3 °C 1015.5 hPa ENE 14.5 km/h 22.5 km/h 56% 0.0 mm CLR
19:20 26.7 °C 17.5 °C 1015.7 hPa NE 12.9 km/h 22.5 km/h 57% 0.0 mm CLR
19:25 26.6 °C 17.4 °C 1015.7 hPa NE 12.9 km/h 22.5 km/h 57% 0.0 mm CLR
19:30 26.6 °C 17.3 °C 1015.7 hPa NE 11.3 km/h 20.9 km/h 57% 0.0 mm CLR
19:35 26.4 °C 17.4 °C 1015.8 hPa NE 11.3 km/h 20.9 km/h 58% 0.0 mm CLR
19:40 26.3 °C 17.7 °C 1015.8 hPa NE 11.3 km/h 19.3 km/h 59% 0.0 mm CLR
19:45 26.2 °C 17.6 °C 1015.8 hPa NE 11.3 km/h 17.7 km/h 59% 0.0 mm CLR
19:50 26.2 °C 17.6 °C 1015.9 hPa NE 11.3 km/h 20.9 km/h 59% 0.0 mm CLR
19:55 26.1 °C 17.4 °C 1015.9 hPa NE 11.3 km/h 17.7 km/h 59% 0.0 mm CLR
20:00 26.1 °C 17.4 °C 1015.9 hPa NE 11.3 km/h 16.1 km/h 59% 0.0 mm CLR
20:05 26.0 °C 17.6 °C 1016.2 hPa NE 11.3 km/h 16.1 km/h 60% 0.0 mm CLR
20:10 25.9 °C 17.6 °C 1016.2 hPa NE 9.7 km/h 14.5 km/h 60% 0.0 mm CLR
20:15 25.8 °C 17.4 °C 1016.2 hPa NE 9.7 km/h 19.3 km/h 60% 0.0 mm CLR
20:20 25.8 °C 17.7 °C 1016.5 hPa NE 9.7 km/h 14.5 km/h 61% 0.0 mm CLR
20:25 25.7 °C 17.6 °C 1016.5 hPa NE 9.7 km/h 19.3 km/h 61% 0.0 mm CLR
20:30 25.7 °C 17.9 °C 1016.5 hPa NE 9.7 km/h 16.1 km/h 62% 0.0 mm CLR
20:35 25.7 °C 17.9 °C 1016.5 hPa NE 9.7 km/h 14.5 km/h 62% 0.0 mm CLR
20:40 25.6 °C 18.1 °C 1016.5 hPa NE 8.0 km/h 11.3 km/h 63% 0.0 mm CLR
20:45 25.4 °C 18.1 °C 1016.5 hPa NE 8.0 km/h 16.1 km/h 64% 0.0 mm CLR
20:50 25.4 °C 18.3 °C 1015.9 hPa ENE 9.7 km/h 16.1 km/h 65% 0.0 mm CLR
20:55 25.3 °C 18.2 °C 1015.9 hPa NE 9.7 km/h 12.9 km/h 65% 0.0 mm CLR
21:00 25.3 °C 18.2 °C 1015.9 hPa NNE 4.8 km/h 9.7 km/h 65% 0.0 mm CLR
21:05 25.2 °C 18.2 °C 1016.6 hPa NE 4.8 km/h 14.5 km/h 65% 0.0 mm CLR
21:10 25.1 °C 18.3 °C 1016.6 hPa NE 9.7 km/h 16.1 km/h 66% 0.0 mm CLR
21:15 25.2 °C 18.4 °C 1016.6 hPa NE 9.7 km/h 11.3 km/h 66% 0.0 mm CLR
21:20 25.2 °C 18.3 °C 1016.6 hPa NE 8.0 km/h 11.3 km/h 66% 0.0 mm CLR
21:25 25.1 °C 18.3 °C 1016.6 hPa NE 8.0 km/h 11.3 km/h 66% 0.0 mm CLR
21:30 25.1 °C 18.6 °C 1016.6 hPa NE 8.0 km/h 11.3 km/h 67% 0.0 mm CLR
21:35 25.1 °C 18.5 °C 1016.7 hPa NE 8.0 km/h 11.3 km/h 67% 0.0 mm CLR
21:40 25.0 °C 18.4 °C 1016.7 hPa NE 8.0 km/h 9.7 km/h 67% 0.0 mm CLR
21:45 25.0 °C 18.4 °C 1016.7 hPa ENE 8.0 km/h 8.0 km/h 67% 0.0 mm CLR
21:50 24.9 °C 18.6 °C 1017.0 hPa NE 3.2 km/h 8.0 km/h 68% 0.0 mm CLR
21:55 24.9 °C 18.6 °C 1017.0 hPa NNE 3.2 km/h 8.0 km/h 68% 0.0 mm CLR
22:00 24.9 °C 18.6 °C 1017.0 hPa North 3.2 km/h 8.0 km/h 68% 0.0 mm CLR
22:05 24.9 °C 18.8 °C 1017.2 hPa North 3.2 km/h 9.7 km/h 69% 0.0 mm CLR
22:10 24.8 °C 18.7 °C 1017.2 hPa North 3.2 km/h 8.0 km/h 69% 0.0 mm CLR
22:15 24.8 °C 18.7 °C 1017.2 hPa NNE 3.2 km/h 8.0 km/h 69% 0.0 mm CLR
22:20 24.8 °C 18.7 °C 1017.2 hPa NE 3.2 km/h 9.7 km/h 69% 0.0 mm CLR
22:25 24.7 °C 18.8 °C 1017.2 hPa NE 3.2 km/h 9.7 km/h 70% 0.0 mm CLR
22:30 24.7 °C 18.8 °C 1017.2 hPa NE 4.8 km/h 8.0 km/h 70% 0.0 mm CLR
22:35 24.7 °C 18.8 °C 1017.3 hPa NE 4.8 km/h 8.0 km/h 70% 0.0 mm CLR
22:40 24.6 °C 18.8 °C 1017.3 hPa NE 3.2 km/h 8.0 km/h 70% 0.0 mm CLR
22:45 24.6 °C 19.0 °C 1017.3 hPa NE 3.2 km/h 8.0 km/h 71% 0.0 mm CLR
22:50 24.6 °C 19.0 °C 1017.5 hPa NE 4.8 km/h 9.7 km/h 71% 0.0 mm CLR
22:55 24.6 °C 19.0 °C 1017.5 hPa NNE 4.8 km/h 8.0 km/h 71% 0.0 mm CLR
23:00 24.6 °C 19.2 °C 1017.5 hPa NNE 3.2 km/h 8.0 km/h 72% 0.0 mm CLR
23:05 24.4 °C 19.0 °C 1017.7 hPa NNE 3.2 km/h 8.0 km/h 72% 0.0 mm CLR
23:10 24.4 °C 19.0 °C 1017.7 hPa North 1.6 km/h 8.0 km/h 72% 0.0 mm CLR
23:15 24.3 °C 19.2 °C 1017.7 hPa North 1.6 km/h 8.0 km/h 73% 0.0 mm CLR
23:20 24.3 °C 19.2 °C 1017.7 hPa NNW 3.2 km/h   73% 0.0 mm CLR
23:25 24.3 °C 18.9 °C 1017.7 hPa NW 3.2 km/h   72% 0.0 mm CLR
23:30 24.3 °C 18.9 °C 1017.7 hPa Calm     72% 0.0 mm CLR
23:35 24.3 °C 18.9 °C 1017.9 hPa Calm     72% 0.0 mm CLR
23:40 24.4 °C 19.0 °C 1017.9 hPa Calm     72% 0.0 mm CLR
23:45 24.4 °C 19.0 °C 1017.9 hPa Calm     72% 0.0 mm CLR
23:50 24.4 °C 19.0 °C 1017.8 hPa NW 1.6 km/h 8.0 km/h 72% 0.0 mm CLR
23:55 24.4 °C 18.8 °C 1017.8 hPa WNW 1.6 km/h 4.8 km/h 71% 0.0 mm CLR
Murcia-Puente Tocinos, España
Compliments of Weather Underground - 2.75 mb

La estación de MeteoMurcia.com, publica sus datos en los siguientes proyectos:

Weather Underground PWS IMURCIAP2 Meteoclimatic www.awekas.at

W3Counter
Web Analytics